Impacts TAF Board
For situational awareness. Not to be used for flight planning purposes.
IDs:

KCLE - Cleveland/Hopkins In, OH, US

Issued at 1131 UTC 25 Jun 2019
Updated at 1147 UTC 25 Jun 2019
Potential Impact None Slight Moderate High
Time<<26/00Z 26/01Z 26/02Z 26/03Z 26/04Z 26/05Z 26/06Z 26/07Z 26/08Z 26/09Z 26/10Z 26/11Z 26/12Z>>
Type PRVL PRVL PRVL PRVL PRVL PRVL PRVL PRVL PRVL PRVL PRVL PRVL PRVL
VIS >6 >6 >6 >6 >6 >6 >6 >6 >6 >6 >6 >6 >6
CIG -- -- -- -- -- -- -- -- -- -- -- -- --
Cover SCT SCT SCT SCT SCT SCT SCT SCT SCT SCT SCT SCT SCT
FltCat VFR VFR VFR VFR VFR VFR VFR VFR VFR VFR VFR VFR VFR
WX -- -- -- -- -- -- -- -- -- -- -- -- --
WDir 210 210 210 210 210 210 210 210 210 210 210 210 210
WSpd 8 8 8 8 8 8 8 8 8 8 8 8 8
WGst -- -- -- -- -- -- -- -- -- -- -- -- --
Raw TAF
KCLE 251131Z 2512/2618 25012KT P6SM SKC
  FM251400 26012G20KT P6SM FEW060
  FM260000 21008KT P6SM SCT250


METAR Board
Radar Display
Forecast Discussion
For situational awareness. Not to be used for flight planning purposes.